Time;durP1;ratioP1;P1;durP2;ratioP2;P2;SDS_P1;SDS_P2;PMS_P1;PMS_P2;Temp;Humidity;BMP_temperature;BMP_pressure;BME280_temperature;BME280_humidity;BME280_pressure;Samples;Min_cycle;Max_cycle;Signal;HPM_P1;HPM_P2
2023/07/15 00:01:24;;;;;;;9.40;4.90;;;;;;;20.31;70.45;100663.56;126868;1086;102004;-78
2023/07/15 00:03:54;;;;;;;9.20;4.80;;;;;;;20.27;69.91;100675.10;126897;1086;101784;-78
2023/07/15 00:06:24;;;;;;;13.30;4.47;;;;;;;20.23;70.07;100665.36;126997;1086;102401;-77
2023/07/15 00:08:54;;;;;;;13.67;5.17;;;;;;;20.22;70.91;100666.23;127063;1086;102005;-77
2023/07/15 00:11:34;;;;;;;10.10;4.47;;;;;;;20.21;71.13;100669.78;127085;1086;104166;-79
2023/07/15 00:14:04;;;;;;;11.63;4.93;;;;;;;20.21;70.22;100673.36;126990;1086;104050;-79
2023/07/15 00:16:32;;;;;;;9.33;4.63;;;;;;;20.20;70.03;100670.69;127010;1086;104181;-79
2023/07/15 00:19:01;;;;;;;10.33;4.67;;;;;;;20.19;70.39;100671.57;126952;1086;104156;-78
2023/07/15 00:21:31;;;;;;;10.03;4.77;;;;;;;20.19;71.16;100677.77;126842;1085;104222;-75
2023/07/15 00:24:00;;;;;;;10.57;4.87;;;;;;;20.21;70.84;100667.11;126940;1086;101880;-76
2023/07/15 00:26:32;;;;;;;9.33;4.70;;;;;;;20.21;71.52;100676.02;126906;1086;104178;-78
2023/07/15 00:29:04;;;;;;;11.27;5.00;;;;;;;20.18;70.87;100672.45;126752;1086;104318;-78
2023/07/15 00:31:36;;;;;;;10.00;4.53;;;;;;;20.15;70.85;100664.45;126970;1086;104229;-78
2023/07/15 00:34:05;;;;;;;12.17;4.90;;;;;;;20.09;71.02;100668.91;126865;1086;102079;-77
2023/07/15 00:36:35;;;;;;;9.85;4.60;;;;;;;20.08;71.63;100669.79;126817;1086;103560;-77
2023/07/15 00:39:05;;;;;;;12.03;5.00;;;;;;;20.06;71.39;100671.58;126736;1086;101921;-79
2023/07/15 00:41:36;;;;;;;13.87;4.87;;;;;;;20.02;72.09;100672.45;126930;1086;101788;-79
2023/07/15 00:44:05;;;;;;;6.93;4.50;;;;;;;19.99;72.51;100669.83;126740;1087;104258;-79
2023/07/15 00:47:12;;;;;;;11.60;4.60;;;;;;;19.97;71.61;100679.56;126925;1086;104194;-79
2023/07/15 00:49:41;;;;;;;9.30;4.70;;;;;;;19.94;72.16;100674.24;127014;1086;102053;-79
2023/07/15 00:52:13;;;;;;;9.23;4.37;;;;;;;19.88;71.64;100671.58;126982;1086;104414;-80
2023/07/15 00:54:45;;;;;;;7.67;4.40;;;;;;;19.85;71.76;100671.58;126872;1086;104252;-80
2023/07/15 00:57:16;;;;;;;9.63;4.50;;;;;;;19.83;72.65;100671.58;126941;1086;104225;-79
2023/07/15 00:59:47;;;;;;;8.57;4.30;;;;;;;19.82;72.99;100667.16;126829;1086;101889;-78
2023/07/15 01:02:16;;;;;;;9.03;4.53;;;;;;;19.82;72.28;100672.48;127050;1086;102101;-79
2023/07/15 01:04:46;;;;;;;9.07;4.70;;;;;;;19.84;72.89;100677.81;126912;1086;102013;-79
2023/07/15 01:07:15;;;;;;;9.73;4.23;;;;;;;19.84;72.56;100673.36;126978;1086;102012;-79
2023/07/15 01:09:44;;;;;;;8.07;4.57;;;;;;;19.85;73.04;100675.15;126900;1085;104162;-77
2023/07/15 01:12:13;;;;;;;10.33;4.40;;;;;;;19.86;72.67;100678.69;126940;1086;101799;-79
2023/07/15 01:14:43;;;;;;;9.87;4.50;;;;;;;19.86;73.12;100679.56;126869;1086;104178;-79
2023/07/15 01:17:12;;;;;;;6.73;4.20;;;;;;;19.84;73.17;100675.15;126931;1086;104231;-78
2023/07/15 01:19:40;;;;;;;9.63;4.50;;;;;;;19.81;73.24;100676.02;126919;1086;101842;-79
2023/07/15 01:22:09;;;;;;;11.37;4.70;;;;;;;19.77;72.95;100682.22;126797;1086;102133;-78
2023/07/15 01:24:39;;;;;;;9.00;4.53;;;;;;;19.71;72.82;100683.09;126786;1086;104218;-77
2023/07/15 01:27:09;;;;;;;11.67;4.50;;;;;;;19.66;73.54;100682.17;127005;1086;101903;-77
2023/07/15 01:29:37;;;;;;;7.70;4.60;;;;;;;19.62;73.43;100682.17;126902;1086;104197;-78
2023/07/15 01:32:07;;;;;;;9.00;4.50;;;;;;;19.57;73.16;100683.07;126979;1086;104253;-78
2023/07/15 01:34:37;;;;;;;9.83;4.40;;;;;;;19.54;73.89;100695.46;126830;1086;102099;-77
2023/07/15 01:37:06;;;;;;;9.47;4.50;;;;;;;19.52;73.98;100694.58;126843;1086;104171;-76
2023/07/15 01:39:35;;;;;;;10.57;4.63;;;;;;;19.50;74.06;100691.92;126533;1085;101880;-75
2023/07/15 01:42:04;;;;;;;8.60;4.47;;;;;;;19.49;73.34;100689.25;126646;1086;104194;-77
2023/07/15 01:44:33;;;;;;;9.10;4.30;;;;;;;19.48;73.58;100691.03;126764;1086;102593;-76
2023/07/15 01:47:01;;;;;;;7.40;4.57;;;;;;;19.46;74.10;100690.16;126721;1086;104197;-76
2023/07/15 01:49:30;;;;;;;8.50;4.40;;;;;;;19.46;74.72;100692.81;126822;1086;101835;-77
2023/07/15 01:51:58;;;;;;;8.47;4.33;;;;;;;19.48;74.83;100692.82;126863;1086;104225;-77
2023/07/15 01:54:27;;;;;;;10.00;4.50;;;;;;;19.49;74.15;100692.79;126735;1086;102096;-77
2023/07/15 01:56:55;;;;;;;8.83;4.50;;;;;;;19.51;74.66;100692.80;126806;1086;101887;-77
2023/07/15 01:59:24;;;;;;;10.57;4.77;;;;;;;19.48;74.01;100690.16;126805;1086;104229;-77
2023/07/15 02:01:55;;;;;;;11.40;4.57;;;;;;;19.45;74.57;100692.81;126729;1086;102251;-78
2023/07/15 02:04:24;;;;;;;9.27;4.40;;;;;;;19.42;74.59;100691.02;126814;1086;104259;-79
2023/07/15 02:06:52;;;;;;;7.60;4.63;;;;;;;19.42;74.91;100687.48;126821;1086;101992;-77
2023/07/15 02:09:21;;;;;;;8.83;4.40;;;;;;;19.40;74.74;100691.02;126780;1086;104175;-76
2023/07/15 02:11:49;;;;;;;8.90;4.77;;;;;;;19.41;74.86;100686.57;126684;1085;104232;-78
2023/07/15 02:14:18;;;;;;;10.50;4.63;;;;;;;19.43;75.29;100694.56;126755;1086;104216;-77
2023/07/15 02:16:47;;;;;;;7.23;4.40;;;;;;;19.44;74.36;100686.58;126775;1086;104226;-76
2023/07/15 02:19:15;;;;;;;8.70;4.60;;;;;;;19.43;75.09;100691.89;126392;1086;104191;-76
2023/07/15 02:21:44;;;;;;;9.87;4.83;;;;;;;19.43;75.14;100695.47;126810;1086;102896;-78
2023/07/15 02:24:12;;;;;;;8.70;4.77;;;;;;;19.49;75.28;100699.89;126760;1086;104165;-77
2023/07/15 02:26:43;;;;;;;8.67;4.53;;;;;;;19.52;75.21;100697.24;126777;1086;102315;-76
2023/07/15 02:29:13;;;;;;;8.53;4.70;;;;;;;19.53;74.85;100707.02;126797;1085;104156;-76
2023/07/15 02:31:41;;;;;;;8.37;4.40;;;;;;;19.52;75.52;100699.91;126676;1085;104854;-76
2023/07/15 02:34:10;;;;;;;9.93;4.40;;;;;;;19.48;75.16;100708.78;126628;1086;104184;-76
2023/07/15 02:36:39;;;;;;;8.23;4.43;;;;;;;19.43;75.30;100708.77;126562;1086;104307;-77
2023/07/15 02:39:08;;;;;;;9.47;4.57;;;;;;;19.39;74.89;100710.52;126762;1086;101845;-76
2023/07/15 02:41:37;;;;;;;7.90;4.57;;;;;;;19.36;75.56;100704.30;126785;1086;104347;-78
2023/07/15 02:44:05;;;;;;;9.97;4.40;;;;;;;19.32;75.04;100708.73;126610;1086;104199;-77
2023/07/15 02:46:34;;;;;;;13.30;5.77;;;;;;;19.30;75.79;100698.97;126725;1086;104213;-77
2023/07/15 02:49:03;;;;;;;7.40;4.30;;;;;;;19.29;76.14;100714.05;126826;1086;104146;-77
2023/07/15 02:51:31;;;;;;;7.80;4.50;;;;;;;19.28;75.93;100714.92;126766;1086;102072;-77
2023/07/15 02:54:01;;;;;;;10.10;4.57;;;;;;;19.26;75.49;100708.72;126683;1086;104200;-77
2023/07/15 02:56:30;;;;;;;8.93;4.57;;;;;;;19.26;76.01;100713.12;126645;1086;104254;-77
2023/07/15 02:58:58;;;;;;;9.23;4.70;;;;;;;19.22;76.07;100712.23;126705;1086;104229;-77
2023/07/15 03:01:27;;;;;;;10.40;4.80;;;;;;;19.19;75.89;100720.21;126712;1086;104237;-77
2023/07/15 03:03:57;;;;;;;11.50;4.73;;;;;;;19.17;76.53;100714.00;126720;1086;104174;-77
2023/07/15 03:06:30;;;;;;;8.00;4.47;;;;;;;19.16;76.04;100721.08;126727;1086;101867;-78
2023/07/15 03:08:58;;;;;;;7.87;4.30;;;;;;;19.15;76.99;100710.43;126751;1086;104289;-77
2023/07/15 03:11:27;;;;;;;8.27;4.87;;;;;;;19.12;76.39;100706.01;126707;1086;101817;-77
2023/07/15 03:13:58;;;;;;;11.27;4.70;;;;;;;19.13;76.57;100712.20;126844;1086;104204;-77
2023/07/15 03:16:26;;;;;;;8.40;4.87;;;;;;;19.11;76.72;100721.96;126648;1086;101958;-76
2023/07/15 03:18:55;;;;;;;8.63;4.80;;;;;;;19.11;77.33;100725.50;126722;1086;104273;-77
2023/07/15 03:21:23;;;;;;;8.57;4.73;;;;;;;19.12;77.17;100727.28;126415;1086;102232;-76
2023/07/15 03:23:52;;;;;;;11.80;5.17;;;;;;;19.12;77.72;100727.28;126718;1085;104231;-77
2023/07/15 03:26:20;;;;;;;10.03;5.17;;;;;;;19.11;78.07;100722.84;126747;1086;104184;-76
2023/07/15 03:28:49;;;;;;;12.00;5.20;;;;;;;19.11;77.88;100724.63;126721;1086;101816;-76
2023/07/15 03:31:17;;;;;;;9.80;5.20;;;;;;;19.12;77.92;100727.28;126782;1086;102057;-77
2023/07/15 03:33:46;;;;;;;8.70;5.30;;;;;;;19.19;78.15;100722.88;126790;1086;104072;-77
2023/07/15 03:36:14;;;;;;;10.17;5.03;;;;;;;19.26;77.51;100722.02;126874;1086;104184;-77
2023/07/15 03:38:43;;;;;;;9.10;4.87;;;;;;;19.33;77.77;100720.27;126872;1086;104200;-78
2023/07/15 03:41:12;;;;;;;10.67;5.03;;;;;;;19.36;77.86;100726.47;126875;1086;104155;-78
2023/07/15 03:43:40;;;;;;;11.17;5.00;;;;;;;19.40;77.63;100722.07;126825;1086;102220;-78
2023/07/15 03:46:09;;;;;;;10.47;5.37;;;;;;;19.42;77.18;100730.94;126745;1086;104027;-77
2023/07/15 03:48:37;;;;;;;8.13;4.70;;;;;;;19.44;78.15;100738.92;126796;1086;104302;-77
2023/07/15 03:51:06;;;;;;;12.63;5.50;;;;;;;19.45;78.22;100736.27;126719;1086;104338;-77
2023/07/15 03:53:38;;;;;;;9.83;5.23;;;;;;;19.47;78.05;100739.81;126923;1086;104149;-77
2023/07/15 03:56:06;;;;;;;10.00;4.67;;;;;;;19.50;77.95;100739.82;126826;1085;101961;-77
2023/07/15 03:58:35;;;;;;;8.90;4.70;;;;;;;19.54;78.05;100740.70;126730;1086;101931;-76
2023/07/15 04:01:04;;;;;;;8.57;4.80;;;;;;;19.60;77.63;100745.17;126863;1086;104233;-78
2023/07/15 04:03:32;;;;;;;8.43;4.60;;;;;;;19.63;78.14;100747.84;126839;1085;102265;-78
2023/07/15 04:06:01;;;;;;;10.77;5.07;;;;;;;19.66;78.21;100751.39;126808;1086;101981;-78
2023/07/15 04:08:29;;;;;;;10.83;5.17;;;;;;;19.66;77.92;100755.83;126856;1086;101835;-77
2023/07/15 04:10:58;;;;;;;8.47;4.40;;;;;;;19.62;77.91;100760.27;126735;1086;102070;-76
2023/07/15 04:13:26;;;;;;;11.53;4.57;;;;;;;19.62;78.32;100757.61;126769;1086;101787;-77
2023/07/15 04:15:55;;;;;;;7.80;4.90;;;;;;;19.64;78.19;100762.94;126800;1086;104254;-78
2023/07/15 04:18:23;;;;;;;11.00;5.00;;;;;;;19.65;78.50;100760.28;126848;1086;104257;-77
2023/07/15 04:20:52;;;;;;;10.93;5.17;;;;;;;19.67;78.26;100768.27;126766;1086;102102;-78
2023/07/15 04:23:20;;;;;;;13.60;4.93;;;;;;;19.71;78.94;100770.03;126802;1086;104453;-77
2023/07/15 04:25:49;;;;;;;7.40;4.67;;;;;;;19.77;77.96;100770.08;126863;1086;104228;-78
2023/07/15 04:28:18;;;;;;;10.17;4.80;;;;;;;19.86;78.90;100769.23;126801;1086;104191;-76
2023/07/15 04:30:46;;;;;;;8.93;4.90;;;;;;;19.89;79.05;100767.44;126998;1086;104228;-80
2023/07/15 04:33:15;;;;;;;13.00;5.07;;;;;;;19.96;77.96;100776.36;126607;1086;104354;-79
2023/07/15 04:35:45;;;;;;;9.10;4.90;;;;;;;20.01;78.33;100779.91;126914;1086;104783;-78
2023/07/15 04:38:13;;;;;;;10.23;5.23;;;;;;;20.03;78.85;100777.24;126963;1086;101787;-77
2023/07/15 04:40:44;;;;;;;9.53;4.90;;;;;;;20.08;78.58;100773.67;126924;1086;102223;-77
2023/07/15 04:43:13;;;;;;;10.80;5.25;;;;;;;20.13;78.39;100772.80;126932;1086;104261;-78
2023/07/15 04:45:42;;;;;;;11.97;5.40;;;;;;;20.19;78.91;100779.02;126967;1086;104165;-78
2023/07/15 04:48:10;;;;;;;10.00;5.13;;;;;;;20.27;78.73;100790.59;127039;1086;104730;-78
2023/07/15 04:50:40;;;;;;;11.87;5.30;;;;;;;20.37;78.20;100788.80;126997;1086;104242;-79
2023/07/15 04:53:08;;;;;;;13.63;5.50;;;;;;;20.45;77.78;100792.34;126891;1086;101978;-78
2023/07/15 04:55:37;;;;;;;10.10;5.03;;;;;;;20.52;77.52;100795.92;126980;1086;104181;-77
2023/07/15 04:58:06;;;;;;;7.57;4.77;;;;;;;20.57;77.77;100796.80;126967;1086;104162;-80
2023/07/15 05:00:36;;;;;;;7.50;4.63;;;;;;;20.67;77.89;100794.16;126925;1086;108093;-77
2023/07/15 05:03:07;;;;;;;9.00;4.70;;;;;;;20.71;77.32;100801.23;126927;1086;104242;-77
2023/07/15 05:05:35;;;;;;;11.47;4.93;;;;;;;20.78;77.85;100805.69;126836;1086;102099;-78
2023/07/15 05:08:12;;;;;;;9.03;5.00;;;;;;;20.86;77.84;100800.34;126959;1086;102012;-77
2023/07/15 05:10:40;;;;;;;8.93;5.10;;;;;;;20.95;76.73;100803.87;127164;1086;104171;-78
2023/07/15 05:13:09;;;;;;;10.00;4.93;;;;;;;21.04;76.88;100804.77;126951;1086;104186;-77
2023/07/15 05:15:39;;;;;;;11.43;5.40;;;;;;;21.10;76.82;100791.38;126877;1085;104194;-78
2023/07/15 05:18:08;;;;;;;9.67;5.17;;;;;;;21.14;76.83;100794.03;126670;1086;104175;-77
2023/07/15 05:20:37;;;;;;;9.53;5.20;;;;;;;21.19;76.39;100792.26;126850;1086;104235;-78
2023/07/15 05:23:06;;;;;;;11.07;5.27;;;;;;;21.28;76.51;100798.45;126833;1086;104156;-78
2023/07/15 05:25:35;;;;;;;9.30;5.00;;;;;;;21.33;75.99;100791.30;126930;1086;101842;-78
2023/07/15 05:28:04;;;;;;;10.77;5.80;;;;;;;21.37;76.43;100788.61;126855;1086;104222;-78
2023/07/15 05:30:36;;;;;;;9.50;5.00;;;;;;;21.43;76.14;100795.72;126888;1086;104165;-78
2023/07/15 05:33:05;;;;;;;9.60;5.17;;;;;;;21.47;75.83;100792.16;127106;1086;104167;-79
2023/07/15 05:35:34;;;;;;;14.17;5.27;;;;;;;21.56;76.02;100779.68;126967;1086;101840;-78
2023/07/15 05:38:02;;;;;;;11.07;5.27;;;;;;;21.66;75.56;100789.39;126977;1086;102277;-78
2023/07/15 05:40:31;;;;;;;11.77;5.10;;;;;;;21.73;75.42;100789.35;127047;1086;104165;-78
2023/07/15 05:43:00;;;;;;;9.33;5.27;;;;;;;21.81;75.07;100791.11;126872;1086;104225;-78
2023/07/15 05:45:28;;;;;;;12.37;5.23;;;;;;;21.86;75.53;100790.19;126867;1086;104239;-78
2023/07/15 05:47:57;;;;;;;10.57;5.20;;;;;;;21.97;75.14;100791.89;126956;1086;104156;-78
2023/07/15 05:50:26;;;;;;;9.03;5.20;;;;;;;22.04;74.59;100797.18;126691;1086;101908;-79
2023/07/15 05:52:54;;;;;;;10.30;5.43;;;;;;;22.12;74.52;100791.78;126927;1086;104050;-78
2023/07/15 05:55:23;;;;;;;13.43;5.17;;;;;;;22.17;74.25;100795.30;126682;1086;104180;-76
2023/07/15 05:57:51;;;;;;;9.33;5.63;;;;;;;22.23;73.99;100797.05;126803;1086;104228;-77
2023/07/15 06:00:20;;;;;;;14.60;5.37;;;;;;;22.29;73.86;100797.00;126947;1086;102137;-78
2023/07/15 06:02:49;;;;;;;10.77;4.73;;;;;;;22.35;74.03;100799.66;126884;1086;104165;-78
2023/07/15 06:05:17;;;;;;;9.63;5.20;;;;;;;22.42;73.35;100793.37;126792;1086;104162;-79
2023/07/15 06:07:48;;;;;;;9.57;5.40;;;;;;;22.49;73.33;100796.87;127038;1086;101992;-79
2023/07/15 06:10:16;;;;;;;10.20;5.03;;;;;;;22.58;73.76;100801.27;126923;1086;104659;-78
2023/07/15 06:12:45;;;;;;;10.13;5.17;;;;;;;22.65;72.74;100796.73;126796;1086;102076;-77
2023/07/15 06:15:13;;;;;;;19.30;5.43;;;;;;;22.72;72.64;100798.43;126837;1085;101878;-77
2023/07/15 06:17:42;;;;;;;12.07;5.20;;;;;;;22.78;72.55;100791.25;126838;1086;104506;-80
2023/07/15 06:20:12;;;;;;;8.05;4.70;;;;;;;22.87;72.65;100797.41;126960;1085;101727;-78
2023/07/15 06:22:40;;;;;;;8.10;5.07;;;;;;;22.96;71.69;100799.98;126934;1085;104159;-78
2023/07/15 06:25:11;;;;;;;12.65;5.45;;;;;;;23.04;71.39;100799.91;126997;1086;101886;-78
2023/07/15 06:27:40;;;;;;;8.53;4.93;;;;;;;23.09;70.77;100798.09;126745;1086;102372;-79
2023/07/15 06:30:10;;;;;;;8.17;4.77;;;;;;;23.16;70.87;100791.77;126866;1086;102170;-77
2023/07/15 06:32:39;;;;;;;8.83;4.50;;;;;;;23.24;70.37;100797.03;126737;1086;110753;-78
2023/07/15 06:35:08;;;;;;;8.53;4.90;;;;;;;23.31;70.00;100807.66;126938;1086;102101;-78
2023/07/15 06:37:37;;;;;;;8.20;4.70;;;;;;;23.39;69.89;100803.98;126887;1086;102113;-78
2023/07/15 06:40:08;;;;;;;9.20;4.67;;;;;;;23.49;69.43;100806.52;126922;1086;104296;-79
2023/07/15 06:42:36;;;;;;;10.23;5.03;;;;;;;23.59;68.99;100806.40;126929;1086;104220;-78
2023/07/15 06:45:06;;;;;;;9.70;4.87;;;;;;;23.64;69.05;100807.25;126867;1086;101961;-80
2023/07/15 06:47:35;;;;;;;9.87;4.80;;;;;;;23.74;69.02;100806.20;126898;1086;104150;-78
2023/07/15 06:50:05;;;;;;;11.60;4.57;;;;;;;23.82;68.13;100806.09;126912;1086;104264;-79
2023/07/15 06:52:33;;;;;;;8.50;4.67;;;;;;;23.92;67.89;100809.55;126973;1086;104207;-78
2023/07/15 06:55:02;;;;;;;9.07;4.87;;;;;;;24.00;67.58;100805.86;127006;1086;104210;-78
2023/07/15 06:57:31;;;;;;;8.83;4.50;;;;;;;24.13;67.27;100808.36;127013;1086;104232;-78
2023/07/15 07:00:00;;;;;;;8.77;4.63;;;;;;;24.23;66.14;100808.19;127081;1086;102456;-80
2023/07/15 07:02:28;;;;;;;13.03;4.90;;;;;;;24.34;65.89;100809.79;126985;1086;101936;-80
2023/07/15 07:04:57;;;;;;;6.57;4.40;;;;;;;24.44;65.25;100807.87;126841;1086;102388;-78
2023/07/15 07:07:26;;;;;;;9.97;5.07;;;;;;;24.57;65.28;100813.03;126953;1086;104123;-79
2023/07/15 07:09:55;;;;;;;8.27;4.40;;;;;;;24.71;63.64;100809.20;126797;1086;101906;-77
2023/07/15 07:12:23;;;;;;;10.53;4.67;;;;;;;24.84;63.45;100805.39;126962;1086;101953;-79
2023/07/15 07:14:52;;;;;;;9.83;4.37;;;;;;;25.02;63.51;100805.95;126872;1086;104309;-80
2023/07/15 07:17:20;;;;;;;6.70;4.20;;;;;;;25.19;62.10;100798.44;126802;1085;104213;-79
2023/07/15 07:19:49;;;;;;;7.63;4.53;;;;;;;25.31;61.10;100802.73;126942;1086;101978;-82
2023/07/15 07:22:18;;;;;;;10.63;4.37;;;;;;;25.48;61.15;100797.00;126946;1086;102050;-78
2023/07/15 07:24:47;;;;;;;10.63;4.80;;;;;;;25.64;59.98;100794.86;127083;1086;104187;-80
2023/07/15 07:27:15;;;;;;;11.20;4.13;;;;;;;25.84;58.70;100797.97;127081;1086;104395;-80
2023/07/15 07:29:44;;;;;;;6.43;4.23;;;;;;;26.01;58.58;100796.75;127345;1086;104235;-78
2023/07/15 07:32:13;;;;;;;7.53;4.10;;;;;;;26.16;58.79;100790.09;128248;1086;104124;-78
2023/07/15 07:34:41;;;;;;;6.93;4.20;;;;;;;26.34;58.17;100788.77;128366;1086;101890;-78
2023/07/15 07:37:10;;;;;;;8.90;4.33;;;;;;;26.53;57.16;100790.05;128267;1086;102068;-78
2023/07/15 07:39:39;;;;;;;8.77;3.90;;;;;;;26.72;55.63;100793.20;127554;1085;101827;-78
2023/07/15 07:42:08;;;;;;;7.77;3.90;;;;;;;26.92;54.63;100804.34;126953;1086;104180;-80
2023/07/15 07:44:37;;;;;;;7.90;4.37;;;;;;;27.11;54.31;100797.50;126892;1086;102102;-80
2023/07/15 07:47:05;;;;;;;7.67;3.97;;;;;;;27.28;53.94;100788.94;127040;1086;102008;-81
2023/07/15 07:49:34;;;;;;;6.83;3.90;;;;;;;27.49;53.48;100794.66;127002;1086;101845;-79
2023/07/15 07:52:03;;;;;;;8.83;4.00;;;;;;;27.60;51.18;100787.15;126879;1085;104181;-76
2023/07/15 07:54:32;;;;;;;9.87;4.10;;;;;;;27.83;51.58;100794.53;126758;1086;102593;-78
2023/07/15 07:57:02;;;;;;;4.77;3.70;;;;;;;27.98;51.09;100790.48;126905;1086;104165;-78
2023/07/15 07:59:30;;;;;;;5.93;3.80;;;;;;;28.11;50.09;100790.95;126814;1086;104267;-77
2023/07/15 08:01:59;;;;;;;7.83;4.30;;;;;;;28.23;49.88;100793.25;127077;1086;104226;-79
2023/07/15 08:04:27;;;;;;;7.20;3.77;;;;;;;28.31;49.26;100784.90;126870;1086;119049;-80
2023/07/15 08:06:56;;;;;;;8.07;3.90;;;;;;;28.43;47.91;100789.88;126818;1086;104175;-79
2023/07/15 08:09:25;;;;;;;7.00;4.03;;;;;;;28.58;46.59;100791.22;126650;1086;104258;-78
2023/07/15 08:11:53;;;;;;;7.03;3.53;;;;;;;28.74;45.96;100785.28;126803;1086;104190;-77
2023/07/15 08:14:22;;;;;;;8.23;3.87;;;;;;;28.82;46.67;100784.05;126898;1086;102037;-78
2023/07/15 08:16:50;;;;;;;7.63;3.67;;;;;;;28.95;47.12;100779.12;126996;1086;101977;-79
2023/07/15 08:19:19;;;;;;;6.07;3.47;;;;;;;29.08;45.42;100784.94;126759;1086;104171;-77
2023/07/15 08:21:47;;;;;;;7.47;3.70;;;;;;;29.14;43.95;100790.13;126836;1086;104245;-78
2023/07/15 08:24:16;;;;;;;6.63;3.40;;;;;;;29.23;44.36;100778.09;126937;1086;101979;-79
2023/07/15 08:26:45;;;;;;;6.10;3.63;;;;;;;29.36;44.66;100775.84;126714;1086;102478;-78
2023/07/15 08:29:13;;;;;;;6.27;3.23;;;;;;;29.47;44.78;100772.72;126622;1086;104152;-78
2023/07/15 08:31:42;;;;;;;7.03;3.80;;;;;;;29.54;43.74;100777.80;126820;1086;104159;-78
2023/07/15 08:34:10;;;;;;;7.55;3.90;;;;;;;29.67;42.77;100774.62;126838;1086;102364;-77
2023/07/15 08:36:39;;;;;;;6.33;3.63;;;;;;;29.76;42.72;100766.14;127094;1086;102073;-78
2023/07/15 08:39:07;;;;;;;5.33;3.73;;;;;;;29.89;42.71;100775.56;126877;1085;102226;-77
2023/07/15 08:41:39;;;;;;;7.63;3.70;;;;;;;29.88;41.77;100781.04;126885;1086;104194;-76
2023/07/15 08:44:08;;;;;;;8.47;4.00;;;;;;;29.96;40.63;100778.89;126810;1086;104244;-78
2023/07/15 08:46:38;;;;;;;7.40;3.60;;;;;;;30.01;39.97;100778.70;126888;1086;104155;-78
2023/07/15 08:49:06;;;;;;;6.30;3.67;;;;;;;30.03;39.28;100772.30;126976;1086;104631;-79
2023/07/15 08:51:36;;;;;;;4.77;3.20;;;;;;;30.10;39.83;100773.78;126984;1086;102040;-79
2023/07/15 08:54:07;;;;;;;5.27;3.60;;;;;;;30.15;38.61;100779.01;127028;1086;102567;-78
2023/07/15 08:56:36;;;;;;;4.90;3.20;;;;;;;30.27;39.06;100773.08;126850;1086;104160;-78
2023/07/15 08:59:06;;;;;;;5.50;3.53;;;;;;;30.23;39.07;100775.98;126745;1086;104274;-78
2023/07/15 09:01:35;;;;;;;6.20;3.13;;;;;;;30.19;38.45;100774.38;126930;1086;104178;-81
2023/07/15 09:04:04;;;;;;;4.53;3.10;;;;;;;30.20;37.96;100781.52;126997;1086;103349;-78
2023/07/15 09:06:33;;;;;;;8.40;3.40;;;;;;;30.22;37.78;100772.41;127096;1086;102012;-81
2023/07/15 09:09:02;;;;;;;6.27;3.60;;;;;;;30.24;37.61;100773.21;126920;1086;104194;-80
2023/07/15 09:11:39;;;;;;;6.50;3.27;;;;;;;30.26;37.88;100779.47;126912;1086;104197;-81
2023/07/15 09:14:14;;;;;;;5.17;3.27;;;;;;;30.29;37.39;100776.63;126980;1086;104159;-80
2023/07/15 09:16:43;;;;;;;5.93;3.43;;;;;;;30.30;36.88;100777.50;127388;1086;101805;-79
2023/07/15 09:19:12;;;;;;;6.33;3.40;;;;;;;30.32;37.24;100772.89;126937;1086;102013;-81
2023/07/15 09:21:52;;;;;;;4.30;3.00;;;;;;;30.38;37.29;100778.05;127043;1086;104082;-81
2023/07/15 09:24:22;;;;;;;7.37;3.40;;;;;;;30.30;36.52;100775.66;126925;1086;102034;-80
2023/07/15 09:26:54;;;;;;;5.67;3.60;;;;;;;30.29;36.68;100775.73;127055;1086;101871;-78
2023/07/15 09:29:23;;;;;;;3.87;3.10;;;;;;;30.34;36.72;100771.02;127228;1086;102096;-79
2023/07/15 09:31:52;;;;;;;4.77;3.37;;;;;;;30.34;36.57;100771.02;127150;1086;104248;-77
2023/07/15 09:34:20;;;;;;;7.00;3.30;;;;;;;30.32;35.83;100775.59;126978;1086;102579;-79
2023/07/15 09:36:50;;;;;;;5.70;3.20;;;;;;;30.27;35.92;100777.62;126920;1086;104182;-80
2023/07/15 09:39:19;;;;;;;7.47;3.50;;;;;;;30.22;35.66;100776.95;127056;1086;102386;-81
2023/07/15 09:42:00;;;;;;;5.93;3.23;;;;;;;30.22;35.85;100782.36;126989;1086;102698;-80
2023/07/15 09:44:37;;;;;;;6.97;3.40;;;;;;;30.22;35.86;100775.11;126972;1086;104178;-79
2023/07/15 09:47:07;;;;;;;6.97;3.70;;;;;;;30.21;35.96;100784.16;126886;1086;104402;-79
2023/07/15 09:49:36;;;;;;;4.30;3.30;;;;;;;30.23;35.66;100765.16;126910;1086;101809;-78
2023/07/15 09:52:06;;;;;;;6.13;3.30;;;;;;;30.28;35.25;100782.11;126559;1086;104238;-78
2023/07/15 09:54:36;;;;;;;8.23;3.27;;;;;;;30.22;34.21;100779.66;126793;1086;101804;-77
2023/07/15 09:57:09;;;;;;;9.20;3.30;;;;;;;30.16;34.54;100769.09;126711;1086;101851;-78
2023/07/15 09:59:44;;;;;;;6.80;3.03;;;;;;;30.13;33.85;100769.22;126655;1086;104174;-77
2023/07/15 10:02:27;;;;;;;4.87;2.90;;;;;;;30.14;34.45;100760.13;126789;1086;104158;-78
2023/07/15 10:05:02;;;;;;;4.65;3.40;;;;;;;30.14;34.18;100760.13;126687;1086;102179;-77
2023/07/15 10:07:32;;;;;;;5.33;2.90;;;;;;;30.10;34.06;100757.55;126639;1086;104184;-77
2023/07/15 10:10:01;;;;;;;5.67;3.30;;;;;;;30.11;34.46;100755.75;126680;1086;104175;-77
2023/07/15 10:12:30;;;;;;;6.33;3.10;;;;;;;30.09;33.71;100761.22;126660;1086;102074;-80
2023/07/15 10:14:59;;;;;;;6.30;3.60;;;;;;;30.03;33.06;100758.77;126885;1086;101913;-81
2023/07/15 10:17:35;;;;;;;6.33;3.20;;;;;;;29.98;33.30;100765.30;126959;1086;104047;-78
2023/07/15 10:20:10;;;;;;;7.70;3.40;;;;;;;30.00;33.35;100758.90;126929;1086;104264;-80
2023/07/15 10:22:39;;;;;;;6.80;3.30;;;;;;;30.02;33.29;100756.13;126898;1086;104184;-81
2023/07/15 10:25:10;;;;;;;4.63;3.10;;;;;;;30.03;33.21;100755.16;126916;1086;101940;-78
2023/07/15 10:27:39;;;;;;;8.37;3.20;;;;;;;30.06;33.24;100749.63;126963;1086;104168;-81
2023/07/15 10:30:17;;;;;;;4.50;3.07;;;;;;;30.09;32.55;100752.20;126807;1085;102369;-79
2023/07/15 10:33:10;;;;;;;5.93;3.10;;;;;;;30.07;32.55;100749.56;126916;1086;102335;-79
2023/07/15 10:35:51;;;;;;;4.55;2.95;;;;;;;30.17;32.79;100738.36;126861;1086;104292;-79
2023/07/15 10:38:24;;;;;;;6.73;3.30;;;;;;;30.18;32.62;100746.41;126836;1085;101883;-79
2023/07/15 10:40:55;;;;;;;6.93;3.40;;;;;;;30.15;32.59;100742.96;126907;1086;104309;-81
2023/07/15 10:43:24;;;;;;;6.43;3.20;;;;;;;30.09;32.34;100742.28;126930;1086;102098;-79
2023/07/15 10:45:54;;;;;;;7.43;3.30;;;;;;;30.07;32.45;100738.73;126621;1086;104156;-77
2023/07/15 10:48:23;;;;;;;5.80;3.17;;;;;;;30.06;32.17;100742.41;126757;1086;101874;-77
2023/07/15 10:50:53;;;;;;;7.57;3.77;;;;;;;30.05;32.41;100746.05;126783;1084;102044;-79
2023/07/15 10:53:25;;;;;;;8.20;3.50;;;;;;;30.07;32.50;100738.73;126855;1086;104152;-79
2023/07/15 10:55:59;;;;;;;11.73;3.90;;;;;;;30.10;32.44;100738.61;126990;1086;104155;-80
2023/07/15 10:58:28;;;;;;;8.60;3.50;;;;;;;30.21;32.35;100729.17;127095;1086;104226;-82
2023/07/15 11:01:01;;;;;;;5.60;3.37;;;;;;;30.21;32.37;100729.17;126952;1086;102019;-81
2023/07/15 11:03:32;;;;;;;5.10;3.62;;;;;;;30.14;32.31;100719.54;127122;1085;102760;-83
2023/07/15 11:06:01;;;;;;;5.30;3.43;;;;;;;30.07;32.48;100727.92;127037;1085;104154;-82
2023/07/15 11:08:31;;;;;;;10.73;3.93;;;;;;;29.98;32.69;100724.73;127054;1085;104162;-78
2023/07/15 11:11:01;;;;;;;5.33;3.30;;;;;;;30.02;32.54;100719.13;127018;1086;101840;-80
2023/07/15 11:13:30;;;;;;;8.13;3.30;;;;;;;30.07;32.74;100716.23;127034;1086;104165;-78
2023/07/15 11:15:59;;;;;;;6.00;3.60;;;;;;;30.18;32.73;100716.64;127027;1086;104158;-79
2023/07/15 11:18:28;;;;;;;7.30;3.50;;;;;;;30.29;32.40;100716.19;126654;1086;101985;-80